Time;durP1;ratioP1;P1;durP2;ratioP2;P2;SDS_P1;SDS_P2;PMS_P1;PMS_P2;Temp;Humidity;BMP_temperature;BMP_pressure;BME280_temperature;BME280_humidity;BME280_pressure;Samples;Min_cycle;Max_cycle;Signal;HPM_P1;HPM_P2
2023/12/19 00:01:02;;;;;;;;;;;;;;;;;;5098260;28;20468;-79
2023/12/19 00:03:28;;;;;;;;;;;;;;;;;;5100245;28;19919;-79
2023/12/19 00:05:53;;;;;;;;;;;;;;;;;;5099801;28;19908;-79
2023/12/19 00:08:18;;;;;;;;;;;;;;;;;;5097976;28;19974;-80
2023/12/19 00:10:44;;;;;;;;;;;;;;;;;;5098152;28;19909;-79
2023/12/19 00:13:09;;;;;;;;;;;;;;;;;;5098471;28;19908;-79
2023/12/19 00:15:35;;;;;;;;;;;;;;;;;;5098146;28;19923;-79
2023/12/19 00:18:00;;;;;;;;;;;;;;;;;;5098422;28;20003;-79
2023/12/19 00:20:26;;;;;;;;;;;;;;;;;;5098391;28;19965;-79
2023/12/19 00:22:51;;;;;;;;;;;;;;;;;;5099960;28;19983;-79
2023/12/19 00:25:16;;;;;;;;;;;;;;;;;;5097704;28;20380;-79
2023/12/19 00:27:41;;;;;;;;;;;;;;;;;;5099308;28;19909;-79
2023/12/19 00:30:06;;;;;;;;;;;;;;;;;;5098309;28;19915;-79
2023/12/19 00:32:32;;;;;;;;;;;;;;;;;;5099748;28;19908;-80
2023/12/19 00:34:57;;;;;;;;;;;;;;;;;;5099387;28;19996;-79
2023/12/19 00:37:22;;;;;;;;;;;;;;;;;;5100583;28;20016;-80
2023/12/19 00:39:47;;;;;;;;;;;;;;;;;;5097757;28;19952;-79
2023/12/19 00:42:12;;;;;;;;;;;;;;;;;;5097735;28;19947;-80
2023/12/19 00:44:37;;;;;;;;;;;;;;;;;;5098296;28;19951;-79
2023/12/19 00:47:03;;;;;;;;;;;;;;;;;;5091483;28;19908;-78
2023/12/19 00:49:28;;;;;;;;;;;;;;;;;;5097620;28;19931;-79
2023/12/19 00:51:53;;;;;;;;;;;;;;;;;;5097296;28;20415;-79
2023/12/19 00:54:18;;;;;;;;;;;;;;;;;;5099015;28;19947;-80
2023/12/19 00:56:43;;;;;;;;;;;;;;;;;;5099046;28;19954;-79
2023/12/19 00:59:08;;;;;;;;;;;;;;;;;;5097782;28;19908;-79
2023/12/19 01:01:33;;;;;;;;;;;;;;;;;;5097478;28;19919;-80
2023/12/19 01:03:58;;;;;;;;;;;;;;;;;;5099038;28;19912;-79
2023/12/19 01:06:23;;;;;;;;;;;;;;;;;;5097759;28;19912;-79
2023/12/19 01:08:49;;;;;;;;;;;;;;;;;;5102386;28;19912;-79
2023/12/19 01:11:14;;;;;;;;;;;;;;;;;;5105700;28;19929;-80
2023/12/19 01:13:39;;;;;;;;;;;;;;;;;;5104715;28;19915;-79
2023/12/19 01:16:04;;;;;;;;;;;;;;;;;;5104513;28;19915;-80
2023/12/19 01:18:29;;;;;;;;;;;;;;;;;;5105086;28;19909;-78
2023/12/19 01:20:54;;;;;;;;;;;;;;;;;;5104262;28;19908;-79
2023/12/19 01:23:19;;;;;;;;;;;;;;;;;;5103607;28;19919;-79
2023/12/19 01:25:44;;;;;;;;;;;;;;;;;;5105200;28;19915;-80
2023/12/19 01:28:09;;;;;;;;;;;;;;;;;;5105068;28;19995;-79
2023/12/19 01:30:35;;;;;;;;;;;;;;;;;;5103310;28;19961;-80
2023/12/19 01:33:00;;;;;;;;;;;;;;;;;;5105497;28;20284;-79
2023/12/19 01:35:25;;;;;;;;;;;;;;;;;;5105274;28;19940;-79
2023/12/19 01:37:50;;;;;;;;;;;;;;;;;;5103731;28;20373;-79
2023/12/19 01:40:15;;;;;;;;;;;;;;;;;;5104857;28;19944;-79
2023/12/19 01:42:40;;;;;;;;;;;;;;;;;;5104941;28;19912;-80
2023/12/19 01:45:05;;;;;;;;;;;;;;;;;;5105034;28;19915;-80
2023/12/19 01:47:30;;;;;;;;;;;;;;;;;;5104564;28;19999;-78
2023/12/19 01:49:55;;;;;;;;;;;;;;;;;;5105537;28;19947;-79
2023/12/19 01:52:20;;;;;;;;;;;;;;;;;;5102868;28;20002;-79
2023/12/19 01:54:46;;;;;;;;;;;;;;;;;;5103873;28;19999;-79
2023/12/19 01:57:11;;;;;;;;;;;;;;;;;;5102963;28;20405;-78
2023/12/19 01:59:36;;;;;;;;;;;;;;;;;;5104837;28;19953;-79
2023/12/19 02:02:02;;;;;;;;;;;;;;;;;;5104457;28;19915;-80
2023/12/19 02:04:27;;;;;;;;;;;;;;;;;;5103307;28;19912;-79
2023/12/19 02:06:52;;;;;;;;;;;;;;;;;;5104307;28;20289;-79
2023/12/19 02:09:17;;;;;;;;;;;;;;;;;;5097276;28;20408;-78
2023/12/19 02:11:42;;;;;;;;;;;;;;;;;;5097243;28;19908;-79
2023/12/19 02:14:07;;;;;;;;;;;;;;;;;;5097577;28;19916;-78
2023/12/19 02:16:32;;;;;;;;;;;;;;;;;;5098870;28;19915;-78
2023/12/19 02:18:57;;;;;;;;;;;;;;;;;;5095774;28;19915;-78
2023/12/19 02:21:22;;;;;;;;;;;;;;;;;;5093860;28;19907;-79
2023/12/19 02:23:47;;;;;;;;;;;;;;;;;;5095444;28;19912;-78
2023/12/19 02:26:13;;;;;;;;;;;;;;;;;;5093990;28;19919;-79
2023/12/19 02:28:38;;;;;;;;;;;;;;;;;;5094318;28;19908;-78
2023/12/19 02:31:03;;;;;;;;;;;;;;;;;;5093897;28;19912;-78
2023/12/19 02:33:28;;;;;;;;;;;;;;;;;;5094027;28;20370;-78
2023/12/19 02:35:53;;;;;;;;;;;;;;;;;;5094196;28;20389;-79
2023/12/19 02:38:18;;;;;;;;;;;;;;;;;;5095007;28;19908;-78
2023/12/19 02:40:44;;;;;;;;;;;;;;;;;;5093705;28;19908;-78
2023/12/19 02:43:09;;;;;;;;;;;;;;;;;;5093888;28;20373;-78
2023/12/19 02:45:34;;;;;;;;;;;;;;;;;;5095068;28;20536;-78
2023/12/19 02:47:59;;;;;;;;;;;;;;;;;;5093815;28;19908;-78
2023/12/19 02:50:24;;;;;;;;;;;;;;;;;;5094762;28;20149;-78
2023/12/19 02:52:49;;;;;;;;;;;;;;;;;;5093538;28;19923;-78
2023/12/19 02:55:14;;;;;;;;;;;;;;;;;;5093445;28;19935;-78
2023/12/19 02:57:39;;;;;;;;;;;;;;;;;;5094741;28;19962;-79
2023/12/19 03:00:05;;;;;;;;;;;;;;;;;;5094542;28;20194;-79
2023/12/19 03:02:30;;;;;;;;;;;;;;;;;;5093270;28;20221;-78
2023/12/19 03:04:56;;;;;;;;;;;;;;;;;;5093322;28;19957;-79
2023/12/19 03:07:21;;;;;;;;;;;;;;;;;;5094486;28;19908;-79
2023/12/19 03:09:46;;;;;;;;;;;;;;;;;;5094311;28;19930;-78
2023/12/19 03:12:11;;;;;;;;;;;;;;;;;;5092945;28;19908;-78
2023/12/19 03:14:36;;;;;;;;;;;;;;;;;;5093088;28;19939;-79
2023/12/19 03:17:01;;;;;;;;;;;;;;;;;;5092964;28;20372;-78
2023/12/19 03:19:27;;;;;;;;;;;;;;;;;;5094100;28;20273;-78
2023/12/19 03:21:52;;;;;;;;;;;;;;;;;;5092762;28;20034;-78
2023/12/19 03:24:17;;;;;;;;;;;;;;;;;;5093917;28;19912;-78
2023/12/19 03:26:42;;;;;;;;;;;;;;;;;;5095826;28;19914;-80
2023/12/19 03:29:07;;;;;;;;;;;;;;;;;;5097126;28;20003;-80
2023/12/19 03:31:32;;;;;;;;;;;;;;;;;;5096789;28;19908;-78
2023/12/19 03:33:58;;;;;;;;;;;;;;;;;;5096479;28;19912;-78
2023/12/19 03:36:23;;;;;;;;;;;;;;;;;;5098723;28;19947;-79
2023/12/19 03:38:48;;;;;;;;;;;;;;;;;;5099060;28;19908;-78
2023/12/19 03:41:13;;;;;;;;;;;;;;;;;;5097146;28;19912;-79
2023/12/19 03:43:38;;;;;;;;;;;;;;;;;;5098030;28;19912;-80
2023/12/19 03:46:07;;;;;;;;;;;;;;;;;;5099337;28;19912;-79
2023/12/19 03:48:34;;;;;;;;;;;;;;;;;;5098260;28;19934;-80
2023/12/19 03:50:59;;;;;;;;;;;;;;;;;;5098180;28;19908;-79
2023/12/19 03:53:24;;;;;;;;;;;;;;;;;;5097036;28;19927;-79
2023/12/19 03:55:49;;;;;;;;;;;;;;;;;;5096280;28;19957;-80
2023/12/19 03:58:14;;;;;;;;;;;;;;;;;;5098269;28;20281;-79
2023/12/19 04:00:39;;;;;;;;;;;;;;;;;;5097725;28;20365;-79
2023/12/19 04:03:04;;;;;;;;;;;;;;;;;;5097897;28;19912;-79
2023/12/19 04:05:30;;;;;;;;;;;;;;;;;;5097621;28;19915;-80
2023/12/19 04:07:55;;;;;;;;;;;;;;;;;;5097683;28;19908;-79
2023/12/19 04:10:20;;;;;;;;;;;;;;;;;;5095221;28;19909;-79
2023/12/19 04:12:45;;;;;;;;;;;;;;;;;;5095619;28;20365;-79
2023/12/19 04:15:10;;;;;;;;;;;;;;;;;;5097678;28;19947;-79
2023/12/19 04:17:35;;;;;;;;;;;;;;;;;;5097250;28;20011;-79
2023/12/19 04:20:00;;;;;;;;;;;;;;;;;;5095632;28;19915;-79
2023/12/19 04:22:25;;;;;;;;;;;;;;;;;;5097102;28;19912;-79
2023/12/19 04:24:50;;;;;;;;;;;;;;;;;;5095520;28;19909;-78
2023/12/19 04:27:15;;;;;;;;;;;;;;;;;;5095331;28;19908;-79
2023/12/19 04:29:45;;;;;;;;;;;;;;;;;;5097063;28;19908;-78
2023/12/19 04:32:10;;;;;;;;;;;;;;;;;;5097167;28;20406;-79
2023/12/19 04:34:35;;;;;;;;;;;;;;;;;;5095581;28;20404;-78
2023/12/19 04:37:00;;;;;;;;;;;;;;;;;;5095592;28;19991;-79
2023/12/19 04:39:25;;;;;;;;;;;;;;;;;;5094919;28;19977;-80
2023/12/19 04:41:51;;;;;;;;;;;;;;;;;;5097832;28;19993;-79
2023/12/19 04:44:16;;;;;;;;;;;;;;;;;;5094570;28;19916;-79
2023/12/19 04:46:41;;;;;;;;;;;;;;;;;;5097140;28;20431;-79
2023/12/19 04:49:06;;;;;;;;;;;;;;;;;;5096785;28;19917;-80
2023/12/19 04:51:31;;;;;;;;;;;;;;;;;;5096291;28;19909;-79
2023/12/19 04:53:57;;;;;;;;;;;;;;;;;;5094902;28;19912;-79
2023/12/19 04:56:22;;;;;;;;;;;;;;;;;;5094688;28;19916;-79
2023/12/19 04:58:47;;;;;;;;;;;;;;;;;;5094857;28;19987;-79
2023/12/19 05:01:12;;;;;;;;;;;;;;;;;;5094870;28;19931;-79
2023/12/19 05:03:39;;;;;;;;;;;;;;;;;;5095384;28;19919;-78
2023/12/19 05:06:05;;;;;;;;;;;;;;;;;;5091436;28;19915;-78
2023/12/19 05:08:30;;;;;;;;;;;;;;;;;;5091421;28;20003;-79
2023/12/19 05:10:55;;;;;;;;;;;;;;;;;;5092459;28;19912;-79
2023/12/19 05:13:20;;;;;;;;;;;;;;;;;;5092796;28;19930;-78
2023/12/19 05:15:45;;;;;;;;;;;;;;;;;;5091508;28;19950;-79
2023/12/19 05:18:10;;;;;;;;;;;;;;;;;;5091307;28;19999;-79
2023/12/19 05:20:36;;;;;;;;;;;;;;;;;;5090934;28;19912;-78
2023/12/19 05:23:01;;;;;;;;;;;;;;;;;;5092249;28;19919;-78
2023/12/19 05:25:26;;;;;;;;;;;;;;;;;;5091260;28;19909;-79
2023/12/19 05:27:51;;;;;;;;;;;;;;;;;;5091265;28;19916;-78
2023/12/19 05:30:16;;;;;;;;;;;;;;;;;;5092195;28;19908;-78
2023/12/19 05:32:41;;;;;;;;;;;;;;;;;;5092608;28;19922;-79
2023/12/19 05:35:07;;;;;;;;;;;;;;;;;;5090979;28;19995;-79
2023/12/19 05:37:32;;;;;;;;;;;;;;;;;;5091389;28;19908;-78
2023/12/19 05:39:57;;;;;;;;;;;;;;;;;;5090788;28;19916;-78
2023/12/19 05:42:22;;;;;;;;;;;;;;;;;;5092252;28;19920;-79
2023/12/19 05:44:47;;;;;;;;;;;;;;;;;;5091204;28;19908;-79
2023/12/19 05:47:12;;;;;;;;;;;;;;;;;;5090879;28;19958;-80
2023/12/19 05:49:38;;;;;;;;;;;;;;;;;;5090874;28;19951;-79
2023/12/19 05:52:03;;;;;;;;;;;;;;;;;;5092321;28;20007;-79
2023/12/19 05:54:28;;;;;;;;;;;;;;;;;;5091617;28;19916;-79
2023/12/19 05:56:53;;;;;;;;;;;;;;;;;;5096073;28;19908;-79
2023/12/19 05:59:18;;;;;;;;;;;;;;;;;;5094402;28;20324;-79
2023/12/19 06:01:43;;;;;;;;;;;;;;;;;;5094395;28;19909;-78
2023/12/19 06:04:08;;;;;;;;;;;;;;;;;;5095714;28;20381;-79
2023/12/19 06:06:37;;;;;;;;;;;;;;;;;;5094457;28;20003;-78
2023/12/19 06:09:05;;;;;;;;;;;;;;;;;;5095605;28;19947;-78
2023/12/19 06:11:30;;;;;;;;;;;;;;;;;;5095536;28;19908;-78
2023/12/19 06:13:55;;;;;;;;;;;;;;;;;;5095499;28;19915;-78
2023/12/19 06:16:20;;;;;;;;;;;;;;;;;;5095930;28;19909;-78
2023/12/19 06:18:45;;;;;;;;;;;;;;;;;;5094194;28;20366;-78
2023/12/19 06:21:10;;;;;;;;;;;;;;;;;;5093918;28;19962;-79
2023/12/19 06:23:35;;;;;;;;;;;;;;;;;;5095404;28;20014;-79
2023/12/19 06:26:00;;;;;;;;;;;;;;;;;;5095296;28;20053;-78
2023/12/19 06:28:25;;;;;;;;;;;;;;;;;;5095184;28;20057;-79
2023/12/19 06:30:50;;;;;;;;;;;;;;;;;;5093778;28;19909;-79
2023/12/19 06:33:16;;;;;;;;;;;;;;;;;;5094973;28;20281;-79
2023/12/19 06:35:41;;;;;;;;;;;;;;;;;;5095180;28;19915;-78
2023/12/19 06:38:06;;;;;;;;;;;;;;;;;;5094936;28;19961;-78
2023/12/19 06:40:31;;;;;;;;;;;;;;;;;;5093674;28;20158;-79
2023/12/19 06:42:57;;;;;;;;;;;;;;;;;;5093774;28;19912;-78
2023/12/19 06:45:22;;;;;;;;;;;;;;;;;;5093640;28;19914;-79
2023/12/19 06:47:47;;;;;;;;;;;;;;;;;;5093424;28;19947;-78
2023/12/19 06:50:12;;;;;;;;;;;;;;;;;;5094517;28;19958;-79
2023/12/19 06:52:37;;;;;;;;;;;;;;;;;;5094588;28;19923;-78
2023/12/19 06:55:04;;;;;;;;;;;;;;;;;;5092558;28;20074;-79
2023/12/19 06:57:29;;;;;;;;;;;;;;;;;;5094607;28;19940;-78
2023/12/19 06:59:54;;;;;;;;;;;;;;;;;;5093259;28;19915;-78
2023/12/19 07:02:19;;;;;;;;;;;;;;;;;;5097990;28;19998;-79
2023/12/19 07:04:44;;;;;;;;;;;;;;;;;;5096022;28;19999;-79
2023/12/19 07:07:09;;;;;;;;;;;;;;;;;;5096963;28;19963;-78
2023/12/19 07:09:35;;;;;;;;;;;;;;;;;;5097557;28;19916;-79
2023/12/19 07:12:00;;;;;;;;;;;;;;;;;;5097614;28;19908;-79
2023/12/19 07:14:25;;;;;;;;;;;;;;;;;;5097532;28;20278;-79
2023/12/19 07:16:50;;;;;;;;;;;;;;;;;;5096311;28;19908;-78
2023/12/19 07:19:15;;;;;;;;;;;;;;;;;;5097035;28;19961;-80
2023/12/19 07:21:41;;;;;;;;;;;;;;;;;;5096764;28;20284;-80
2023/12/19 07:24:07;;;;;;;;;;;;;;;;;;5094738;28;20287;-79
2023/12/19 07:26:32;;;;;;;;;;;;;;;;;;5095377;28;19908;-79
2023/12/19 07:28:57;;;;;;;;;;;;;;;;;;5096892;28;19930;-79
2023/12/19 07:31:23;;;;;;;;;;;;;;;;;;5097028;28;19930;-79
2023/12/19 07:33:48;;;;;;;;;;;;;;;;;;5094958;28;19908;-79
2023/12/19 07:36:13;;;;;;;;;;;;;;;;;;5096141;28;19961;-79
2023/12/19 07:38:38;;;;;;;;;;;;;;;;;;5095044;28;19908;-79
2023/12/19 07:41:04;;;;;;;;;;;;;;;;;;5095417;28;19912;-79
2023/12/19 07:43:30;;;;;;;;;;;;;;;;;;5094516;28;19912;-80
2023/12/19 07:45:55;;;;;;;;;;;;;;;;;;5094727;28;19908;-79
2023/12/19 07:48:20;;;;;;;;;;;;;;;;;;5094692;28;19915;-79
2023/12/19 07:50:45;;;;;;;;;;;;;;;;;;5096048;28;19914;-79
2023/12/19 07:53:10;;;;;;;;;;;;;;;;;;5096066;28;19915;-79
2023/12/19 07:55:35;;;;;;;;;;;;;;;;;;5094639;28;19915;-79
2023/12/19 07:58:00;;;;;;;;;;;;;;;;;;5095776;28;19979;-80
2023/12/19 08:00:25;;;;;;;;;;;;;;;;;;5093546;28;19973;-79
2023/12/19 08:02:53;;;;;;;;;;;;;;;;;;5092632;28;19912;-79
2023/12/19 08:05:18;;;;;;;;;;;;;;;;;;5093945;28;20032;-79
2023/12/19 08:07:43;;;;;;;;;;;;;;;;;;5092247;28;19970;-79
2023/12/19 08:10:08;;;;;;;;;;;;;;;;;;5092437;28;19908;-79
2023/12/19 08:12:34;;;;;;;;;;;;;;;;;;5092420;28;19958;-79
2023/12/19 08:15:01;;;;;;;;;;;;;;;;;;5093529;28;19909;-79
2023/12/19 08:17:26;;;;;;;;;;;;;;;;;;5091640;28;19912;-78
2023/12/19 08:19:51;;;;;;;;;;;;;;;;;;5093426;28;19909;-79
2023/12/19 08:22:16;;;;;;;;;;;;;;;;;;5093337;28;20255;-79
2023/12/19 08:24:41;;;;;;;;;;;;;;;;;;5093112;28;19916;-80
2023/12/19 08:27:06;;;;;;;;;;;;;;;;;;5092147;28;19980;-79
2023/12/19 08:29:32;;;;;;;;;;;;;;;;;;5091786;28;19908;-79
2023/12/19 08:31:57;;;;;;;;;;;;;;;;;;5091715;28;19908;-79
2023/12/19 08:34:22;;;;;;;;;;;;;;;;;;5093366;28;19908;-79
2023/12/19 08:36:47;;;;;;;;;;;;;;;;;;5091937;28;20289;-79
2023/12/19 08:39:12;;;;;;;;;;;;;;;;;;5091437;28;19972;-78
2023/12/19 08:41:37;;;;;;;;;;;;;;;;;;5093302;28;19908;-79
2023/12/19 08:44:02;;;;;;;;;;;;;;;;;;5091833;28;19916;-79
2023/12/19 08:46:28;;;;;;;;;;;;;;;;;;5093060;28;19912;-79
2023/12/19 08:48:53;;;;;;;;;;;;;;;;;;5091725;28;19962;-79
2023/12/19 08:51:18;;;;;;;;;;;;;;;;;;5091339;28;19912;-79
2023/12/19 08:53:43;;;;;;;;;;;;;;;;;;5091471;28;19923;-79
2023/12/19 08:56:08;;;;;;;;;;;;;;;;;;5093066;28;19916;-79
2023/12/19 08:58:33;;;;;;;;;;;;;;;;;;5092766;28;19919;-79
2023/12/19 09:00:58;;;;;;;;;;;;;;;;;;5091212;28;19916;-78
2023/12/19 09:03:23;;;;;;;;;;;;;;;;;;5092782;28;19916;-79
2023/12/19 09:05:50;;;;;;;;;;;;;;;;;;5091496;28;19915;-78
2023/12/19 09:08:15;;;;;;;;;;;;;;;;;;5092737;28;19977;-79
2023/12/19 09:10:40;;;;;;;;;;;;;;;;;;5091446;28;19908;-79
2023/12/19 09:13:05;;;;;;;;;;;;;;;;;;5092924;28;19994;-78
2023/12/19 09:15:30;;;;;;;;;;;;;;;;;;5092717;28;19915;-79
2023/12/19 09:17:55;;;;;;;;;;;;;;;;;;5092419;28;19908;-79
2023/12/19 09:20:21;;;;;;;;;;;;;;;;;;5091244;28;19957;-79
2023/12/19 09:22:46;;;;;;;;;;;;;;;;;;5092481;28;19920;-79
2023/12/19 09:25:14;;;;;;;;;;;;;;;;;;5091120;28;19908;-79
2023/12/19 09:27:39;;;;;;;;;;;;;;;;;;5091151;28;19908;-78
2023/12/19 09:30:04;;;;;;;;;;;;;;;;;;5094425;28;19916;-78
2023/12/19 09:32:29;;;;;;;;;;;;;;;;;;5096695;28;19908;-78
2023/12/19 09:34:54;;;;;;;;;;;;;;;;;;5096660;28;19909;-79
2023/12/19 09:37:23;;;;;;;;;;;;;;;;;;5095223;28;19908;-79
2023/12/19 09:39:48;;;;;;;;;;;;;;;;;;5095088;28;19915;-78
2023/12/19 09:42:17;;;;;;;;;;;;;;;;;;5095170;28;20046;-78
2023/12/19 09:44:42;;;;;;;;;;;;;;;;;;5096249;28;19912;-78
2023/12/19 09:47:07;;;;;;;;;;;;;;;;;;5096080;28;19915;-79
2023/12/19 09:49:39;;;;;;;;;;;;;;;;;;5094975;28;19908;-79
2023/12/19 09:52:04;;;;;;;;;;;;;;;;;;5094436;28;19924;-78
2023/12/19 09:54:29;;;;;;;;;;;;;;;;;;5096026;28;19908;-78
2023/12/19 09:56:56;;;;;;;;;;;;;;;;;;5094681;28;20323;-79
2023/12/19 09:59:21;;;;;;;;;;;;;;;;;;5092063;28;19912;-78
2023/12/19 10:01:47;;;;;;;;;;;;;;;;;;5089886;28;19985;-78
2023/12/19 10:04:16;;;;;;;;;;;;;;;;;;5094327;28;19919;-79
2023/12/19 10:06:42;;;;;;;;;;;;;;;;;;5094499;28;19908;-78
2023/12/19 10:09:08;;;;;;;;;;;;;;;;;;5095734;28;19915;-78
2023/12/19 10:11:33;;;;;;;;;;;;;;;;;;5095345;28;20306;-79
2023/12/19 10:13:58;;;;;;;;;;;;;;;;;;5095474;28;19915;-78
2023/12/19 10:16:23;;;;;;;;;;;;;;;;;;5094200;28;19912;-79
2023/12/19 10:18:48;;;;;;;;;;;;;;;;;;5094119;28;19915;-79
2023/12/19 10:21:15;;;;;;;;;;;;;;;;;;5093672;28;20323;-78
2023/12/19 10:23:40;;;;;;;;;;;;;;;;;;5093893;28;19966;-79
2023/12/19 10:26:06;;;;;;;;;;;;;;;;;;5093905;28;19908;-78
2023/12/19 10:28:32;;;;;;;;;;;;;;;;;;5093811;28;20368;-78
2023/12/19 10:30:57;;;;;;;;;;;;;;;;;;5093639;28;19953;-78
2023/12/19 10:33:22;;;;;;;;;;;;;;;;;;5095093;28;19908;-78
2023/12/19 10:35:47;;;;;;;;;;;;;;;;;;5095526;28;19915;-79
2023/12/19 10:38:12;;;;;;;;;;;;;;;;;;5095414;28;19934;-78
2023/12/19 10:40:37;;;;;;;;;;;;;;;;;;5096044;28;20320;-78
2023/12/19 10:43:02;;;;;;;;;;;;;;;;;;5095519;28;19919;-78
2023/12/19 10:45:27;;;;;;;;;;;;;;;;;;5095418;28;19916;-79
2023/12/19 10:47:53;;;;;;;;;;;;;;;;;;5095396;28;20193;-78
2023/12/19 10:50:18;;;;;;;;;;;;;;;;;;5096027;28;19908;-79
2023/12/19 10:52:43;;;;;;;;;;;;;;;;;;5095100;28;20031;-78
2023/12/19 10:55:08;;;;;;;;;;;;;;;;;;5096894;28;19971;-79
2023/12/19 10:57:35;;;;;;;;;;;;;;;;;;5094292;28;19919;-78
2023/12/19 11:00:00;;;;;;;;;;;;;;;;;;5093970;28;19972;-79
2023/12/19 11:02:25;;;;;;;;;;;;;;;;;;5093886;28;19931;-79
2023/12/19 11:04:50;;;;;;;;;;;;;;;;;;5093880;28;20420;-79
2023/12/19 11:07:16;;;;;;;;;;;;;;;;;;5093686;28;19916;-79
2023/12/19 11:09:43;;;;;;;;;;;;;;;;;;5095063;28;19908;-78
2023/12/19 11:12:08;;;;;;;;;;;;;;;;;;5093354;28;19908;-78
2023/12/19 11:14:33;;;;;;;;;;;;;;;;;;5093621;28;19915;-78
2023/12/19 11:16:58;;;;;;;;;;;;;;;;;;5093677;28;19908;-79
2023/12/19 11:19:23;;;;;;;;;;;;;;;;;;5093148;28;19960;-79
2023/12/19 11:21:49;;;;;;;;;;;;;;;;;;5093316;28;19952;-79
2023/12/19 11:24:14;;;;;;;;;;;;;;;;;;5093691;28;19957;-79
2023/12/19 11:26:39;;;;;;;;;;;;;;;;;;5094696;28;20344;-79
2023/12/19 11:29:04;;;;;;;;;;;;;;;;;;5094864;28;19912;-79
2023/12/19 11:31:32;;;;;;;;;;;;;;;;;;5094501;28;19908;-79
2023/12/19 11:33:57;;;;;;;;;;;;;;;;;;5094533;28;19961;-79
2023/12/19 11:36:22;;;;;;;;;;;;;;;;;;5094657;28;19912;-79
2023/12/19 11:38:49;;;;;;;;;;;;;;;;;;5093013;28;19908;-79
2023/12/19 11:41:14;;;;;;;;;;;;;;;;;;5092761;28;19947;-79
2023/12/19 11:43:39;;;;;;;;;;;;;;;;;;5092896;28;19948;-78
2023/12/19 11:46:06;;;;;;;;;;;;;;;;;;5094102;28;20002;-78
2023/12/19 11:48:31;;;;;;;;;;;;;;;;;;5094158;28;19915;-78
2023/12/19 11:50:56;;;;;;;;;;;;;;;;;;5092673;28;19912;-78
2023/12/19 11:53:21;;;;;;;;;;;;;;;;;;5094042;28;19916;-79
2023/12/19 11:55:46;;;;;;;;;;;;;;;;;;5092691;28;19931;-79
2023/12/19 11:58:11;;;;;;;;;;;;;;;;;;5092487;28;19962;-78
2023/12/19 12:00:36;;;;;;;;;;;;;;;;;;5093900;28;19954;-78
2023/12/19 12:03:02;;;;;;;;;;;;;;;;;;5093616;28;19965;-79
2023/12/19 12:05:27;;;;;;;;;;;;;;;;;;5092390;28;19940;-78
2023/12/19 12:07:53;;;;;;;;;;;;;;;;;;5092323;28;19934;-78
2023/12/19 12:10:20;;;;;;;;;;;;;;;;;;5093360;28;19953;-79
2023/12/19 12:12:45;;;;;;;;;;;;;;;;;;5092394;28;20266;-79
2023/12/19 12:15:10;;;;;;;;;;;;;;;;;;5094076;28;20316;-79
2023/12/19 12:17:36;;;;;;;;;;;;;;;;;;5093548;28;20008;-78
2023/12/19 12:20:02;;;;;;;;;;;;;;;;;;5093399;28;20376;-79
2023/12/19 12:22:27;;;;;;;;;;;;;;;;;;5092324;28;20362;-79
2023/12/19 12:24:55;;;;;;;;;;;;;;;;;;5094100;28;20313;-79
2023/12/19 12:27:20;;;;;;;;;;;;;;;;;;5093702;28;19909;-79
2023/12/19 12:29:45;;;;;;;;;;;;;;;;;;5092071;28;19923;-78
2023/12/19 12:32:11;;;;;;;;;;;;;;;;;;5093485;28;19912;-79
2023/12/19 12:34:36;;;;;;;;;;;;;;;;;;5092552;28;19908;-79
2023/12/19 12:37:01;;;;;;;;;;;;;;;;;;5093403;28;19908;-78
2023/12/19 12:39:26;;;;;;;;;;;;;;;;;;5093340;28;19915;-80
2023/12/19 12:41:51;;;;;;;;;;;;;;;;;;5099575;28;20023;-79
2023/12/19 12:44:16;;;;;;;;;;;;;;;;;;5099184;28;19923;-79
2023/12/19 12:46:41;;;;;;;;;;;;;;;;;;5101719;28;19909;-79
2023/12/19 12:49:06;;;;;;;;;;;;;;;;;;5100126;28;19908;-80
2023/12/19 12:51:32;;;;;;;;;;;;;;;;;;5100455;28;19915;-79
2023/12/19 12:53:58;;;;;;;;;;;;;;;;;;5100087;28;19976;-80
2023/12/19 12:56:23;;;;;;;;;;;;;;;;;;5100453;28;19951;-79
2023/12/19 12:58:48;;;;;;;;;;;;;;;;;;5100297;28;20388;-79
2023/12/19 13:01:13;;;;;;;;;;;;;;;;;;5100088;28;19908;-79
2023/12/19 13:03:38;;;;;;;;;;;;;;;;;;5098817;28;19967;-79
2023/12/19 13:06:04;;;;;;;;;;;;;;;;;;5100305;28;20057;-80
2023/12/19 13:08:29;;;;;;;;;;;;;;;;;;5099612;28;19915;-79
2023/12/19 13:10:54;;;;;;;;;;;;;;;;;;5099104;28;19908;-80
2023/12/19 13:13:19;;;;;;;;;;;;;;;;;;5098976;28;19915;-79
2023/12/19 13:15:44;;;;;;;;;;;;;;;;;;5100010;28;20385;-79
2023/12/19 13:18:10;;;;;;;;;;;;;;;;;;5099825;28;19908;-80
2023/12/19 13:20:36;;;;;;;;;;;;;;;;;;5098858;28;19912;-79
2023/12/19 13:23:04;;;;;;;;;;;;;;;;;;5099972;28;19957;-79
2023/12/19 13:25:29;;;;;;;;;;;;;;;;;;5098428;28;19908;-79
2023/12/19 13:27:54;;;;;;;;;;;;;;;;;;5098376;28;19961;-80
2023/12/19 13:30:19;;;;;;;;;;;;;;;;;;5098429;28;19909;-79
2023/12/19 13:32:44;;;;;;;;;;;;;;;;;;5099444;28;19934;-79
2023/12/19 13:35:09;;;;;;;;;;;;;;;;;;5097873;28;19909;-79
2023/12/19 13:37:34;;;;;;;;;;;;;;;;;;5099594;28;20284;-80
2023/12/19 13:39:59;;;;;;;;;;;;;;;;;;5098876;28;19915;-79
2023/12/19 13:42:25;;;;;;;;;;;;;;;;;;5098479;28;19912;-80
2023/12/19 13:44:50;;;;;;;;;;;;;;;;;;5097607;28;19972;-80
2023/12/19 13:47:15;;;;;;;;;;;;;;;;;;5098076;28;20428;-79
2023/12/19 13:49:40;;;;;;;;;;;;;;;;;;5098725;28;20400;-79
2023/12/19 13:52:05;;;;;;;;;;;;;;;;;;5097440;28;19916;-80
2023/12/19 13:54:30;;;;;;;;;;;;;;;;;;5092738;28;20281;-79
2023/12/19 13:56:56;;;;;;;;;;;;;;;;;;5092609;28;19908;-78
2023/12/19 13:59:22;;;;;;;;;;;;;;;;;;5092203;28;19909;-79
2023/12/19 14:01:47;;;;;;;;;;;;;;;;;;5092261;28;19915;-79
2023/12/19 14:04:13;;;;;;;;;;;;;;;;;;5090503;28;19912;-79
2023/12/19 14:06:38;;;;;;;;;;;;;;;;;;5090715;28;19909;-79
2023/12/19 14:09:03;;;;;;;;;;;;;;;;;;5095198;28;19915;-79
2023/12/19 14:11:29;;;;;;;;;;;;;;;;;;5098669;28;20285;-79
2023/12/19 14:13:54;;;;;;;;;;;;;;;;;;5097444;28;19912;-79
2023/12/19 14:16:19;;;;;;;;;;;;;;;;;;5100819;28;19908;-79
2023/12/19 14:18:44;;;;;;;;;;;;;;;;;;5102725;28;19916;-79
2023/12/19 14:21:10;;;;;;;;;;;;;;;;;;5102903;28;20373;-79
2023/12/19 14:23:35;;;;;;;;;;;;;;;;;;5101510;28;19919;-80
2023/12/19 14:26:00;;;;;;;;;;;;;;;;;;5102321;28;20355;-79
2023/12/19 14:28:26;;;;;;;;;;;;;;;;;;5101431;28;19920;-79
2023/12/19 14:30:51;;;;;;;;;;;;;;;;;;5100857;28;19930;-79
2023/12/19 14:33:16;;;;;;;;;;;;;;;;;;5102154;28;19959;-80
2023/12/19 14:35:43;;;;;;;;;;;;;;;;;;5100751;28;19943;-79
2023/12/19 14:38:09;;;;;;;;;;;;;;;;;;5100159;28;19916;-79
2023/12/19 14:40:34;;;;;;;;;;;;;;;;;;5101137;28;19912;-79
2023/12/19 14:42:59;;;;;;;;;;;;;;;;;;5101732;28;19918;-79
2023/12/19 14:45:24;;;;;;;;;;;;;;;;;;5101119;28;19912;-79
2023/12/19 14:47:50;;;;;;;;;;;;;;;;;;5100196;28;20293;-80
2023/12/19 14:50:15;;;;;;;;;;;;;;;;;;5101874;28;19919;-79
2023/12/19 14:52:41;;;;;;;;;;;;;;;;;;5099992;28;19963;-80
2023/12/19 14:55:06;;;;;;;;;;;;;;;;;;5101080;28;19908;-80
2023/12/19 14:57:32;;;;;;;;;;;;;;;;;;5101458;28;19976;-80
2023/12/19 14:59:57;;;;;;;;;;;;;;;;;;5101175;28;19908;-80
2023/12/19 15:02:23;;;;;;;;;;;;;;;;;;5099119;28;20323;-79
2023/12/19 15:04:48;;;;;;;;;;;;;;;;;;5100707;28;19931;-79
2023/12/19 15:07:13;;;;;;;;;;;;;;;;;;5099649;28;19916;-80
2023/12/19 15:09:38;;;;;;;;;;;;;;;;;;5100680;28;19930;-80
2023/12/19 15:12:03;;;;;;;;;;;;;;;;;;5100573;28;19912;-80
2023/12/19 15:14:29;;;;;;;;;;;;;;;;;;5100757;28;20109;-80
2023/12/19 15:16:54;;;;;;;;;;;;;;;;;;5100570;28;19912;-79
2023/12/19 15:19:19;;;;;;;;;;;;;;;;;;5099843;28;20015;-80
2023/12/19 15:21:44;;;;;;;;;;;;;;;;;;5099262;28;20214;-80
2023/12/19 15:24:09;;;;;;;;;;;;;;;;;;5100015;28;19951;-80
2023/12/19 15:26:34;;;;;;;;;;;;;;;;;;5098186;28;19957;-80
2023/12/19 15:28:59;;;;;;;;;;;;;;;;;;5099674;28;19975;-80
2023/12/19 15:31:24;;;;;;;;;;;;;;;;;;5098947;28;20504;-80
2023/12/19 15:33:50;;;;;;;;;;;;;;;;;;5098109;28;19908;-80
2023/12/19 15:36:15;;;;;;;;;;;;;;;;;;5097842;28;19914;-80
2023/12/19 15:38:40;;;;;;;;;;;;;;;;;;5099411;28;19915;-80
2023/12/19 15:41:05;;;;;;;;;;;;;;;;;;5097283;28;20282;-80
2023/12/19 15:43:30;;;;;;;;;;;;;;;;;;5097970;28;19999;-80
2023/12/19 15:45:56;;;;;;;;;;;;;;;;;;5099686;28;20405;-80
2023/12/19 15:48:21;;;;;;;;;;;;;;;;;;5090905;28;20392;-80
2023/12/19 15:50:46;;;;;;;;;;;;;;;;;;5099025;28;20416;-80
2023/12/19 15:53:11;;;;;;;;;;;;;;;;;;5097563;28;19916;-80
2023/12/19 15:55:36;;;;;;;;;;;;;;;;;;5099622;28;20385;-81
2023/12/19 15:58:01;;;;;;;;;;;;;;;;;;5097666;28;19908;-80
2023/12/19 16:00:27;;;;;;;;;;;;;;;;;;5098768;28;19914;-80
2023/12/19 16:02:52;;;;;;;;;;;;;;;;;;5099364;28;19908;-81
2023/12/19 16:05:17;;;;;;;;;;;;;;;;;;5098846;28;19961;-80
2023/12/19 16:07:44;;;;;;;;;;;;;;;;;;5098793;28;20281;-81
2023/12/19 16:10:09;;;;;;;;;;;;;;;;;;5097331;28;19908;-81
2023/12/19 16:12:35;;;;;;;;;;;;;;;;;;5098932;28;19912;-81
2023/12/19 16:15:00;;;;;;;;;;;;;;;;;;5099140;28;19920;-81
2023/12/19 16:17:25;;;;;;;;;;;;;;;;;;5096697;28;19908;-81
2023/12/19 16:19:50;;;;;;;;;;;;;;;;;;5099157;28;19915;-81
2023/12/19 16:22:15;;;;;;;;;;;;;;;;;;5097019;28;19923;-81
2023/12/19 16:24:40;;;;;;;;;;;;;;;;;;5098372;28;20381;-81
2023/12/19 16:27:05;;;;;;;;;;;;;;;;;;5097169;28;19908;-80
2023/12/19 16:29:30;;;;;;;;;;;;;;;;;;5096495;28;19909;-80
2023/12/19 16:31:56;;;;;;;;;;;;;;;;;;5096632;28;20391;-81